createdAt,value
2022-08-26T00:01:57.147Z,6.55
2022-08-26T00:04:26.358Z,6.63
2022-08-26T00:06:55.658Z,6.68
2022-08-26T00:09:25.022Z,6.40
2022-08-26T00:11:53.616Z,6.50
2022-08-26T00:14:21.469Z,6.35
2022-08-26T00:16:49.263Z,6.68
2022-08-26T00:19:18.328Z,6.13
2022-08-26T00:21:48.592Z,6.43
2022-08-26T00:24:16.978Z,5.75
2022-08-26T00:26:45.111Z,6.82
2022-08-26T00:29:12.993Z,7.03
2022-08-26T00:31:41.263Z,6.38
2022-08-26T00:34:11.128Z,6.32
2022-08-26T00:36:40.792Z,6.60
2022-08-26T00:39:08.832Z,6.93
2022-08-26T00:41:38.539Z,6.45
2022-08-26T00:44:07.028Z,5.93
2022-08-26T00:46:36.494Z,6.20
2022-08-26T00:49:12.103Z,6.45
2022-08-26T00:51:56.695Z,6.65
2022-08-26T00:54:27.084Z,7.22
2022-08-26T00:57:08.685Z,6.60
2022-08-26T00:59:46.673Z,7.00
2022-08-26T01:02:20.081Z,6.93
2022-08-26T01:04:48.659Z,6.82
2022-08-26T01:07:22.659Z,7.40
2022-08-26T01:09:51.122Z,6.50
2022-08-26T01:12:22.176Z,6.95
2022-08-26T01:14:50.490Z,6.43
2022-08-26T01:17:18.776Z,7.05
2022-08-26T01:19:48.486Z,6.78
2022-08-26T01:22:28.727Z,7.28
2022-08-26T01:24:58.392Z,6.53
2022-08-26T01:27:27.613Z,6.30
2022-08-26T01:30:01.469Z,5.97
2022-08-26T01:32:30.656Z,6.95
2022-08-26T01:35:00.308Z,6.65
2022-08-26T01:37:30.429Z,6.25
2022-08-26T01:39:58.734Z,6.25
2022-08-26T01:42:28.574Z,6.45
2022-08-26T01:45:07.174Z,6.53
2022-08-26T01:47:36.947Z,6.40
2022-08-26T01:50:08.475Z,6.15
2022-08-26T01:52:38.999Z,6.38
2022-08-26T01:55:07.528Z,6.57
2022-08-26T01:57:35.773Z,7.13
2022-08-26T02:00:10.930Z,6.65
2022-08-26T02:02:43.498Z,7.22
2022-08-26T02:05:12.970Z,6.50
2022-08-26T02:07:41.564Z,6.90
2022-08-26T02:10:10.170Z,6.80
2022-08-26T02:12:38.142Z,7.43
2022-08-26T02:15:08.422Z,7.15
2022-08-26T02:17:43.196Z,6.75
2022-08-26T02:20:16.681Z,6.47
2022-08-26T02:22:46.404Z,7.20
2022-08-26T02:25:35.740Z,6.68
2022-08-26T02:28:03.776Z,6.70
2022-08-26T02:30:33.570Z,6.57
2022-08-26T02:33:04.206Z,6.63
2022-08-26T02:35:33.037Z,6.85
2022-08-26T02:38:01.471Z,7.18
2022-08-26T02:40:31.302Z,6.78
2022-08-26T02:42:59.366Z,6.80
2022-08-26T02:45:29.286Z,6.95
2022-08-26T02:47:59.654Z,6.53
2022-08-26T02:50:28.185Z,6.22
2022-08-26T02:52:56.519Z,6.38
2022-08-26T02:55:24.698Z,6.20
2022-08-26T02:57:52.708Z,6.57
2022-08-26T03:00:21.133Z,6.65
2022-08-26T03:02:49.105Z,6.45
2022-08-26T03:05:18.194Z,6.60
2022-08-26T03:07:46.347Z,6.80
2022-08-26T03:10:14.366Z,6.57
2022-08-26T03:12:43.190Z,6.97
2022-08-26T03:15:18.384Z,6.55
2022-08-26T03:17:50.352Z,6.47
2022-08-26T03:20:18.884Z,6.65
2022-08-26T03:22:46.909Z,7.00
2022-08-26T03:25:16.217Z,7.00
2022-08-26T03:27:44.503Z,6.50
2022-08-26T03:30:31.965Z,6.78
2022-08-26T03:33:01.131Z,6.90
2022-08-26T03:35:29.366Z,6.47
2022-08-26T03:37:57.487Z,6.60
2022-08-26T03:40:25.575Z,6.35
2022-08-26T03:42:57.069Z,7.32
2022-08-26T03:45:25.062Z,6.70
2022-08-26T03:47:53.092Z,7.03
2022-08-26T03:50:22.923Z,6.47
2022-08-26T03:52:53.151Z,7.05
2022-08-26T03:55:23.915Z,7.13
2022-08-26T03:57:52.264Z,6.72
2022-08-26T04:00:20.727Z,7.18
2022-08-26T04:02:51.383Z,7.13
2022-08-26T04:05:22.847Z,6.65
2022-08-26T04:07:51.248Z,6.88
2022-08-26T04:10:22.321Z,6.85
2022-08-26T04:12:56.533Z,6.53
2022-08-26T04:15:27.503Z,6.85
2022-08-26T04:17:55.926Z,6.45
2022-08-26T04:20:23.976Z,6.53
2022-08-26T04:22:52.003Z,6.22
2022-08-26T04:25:20.470Z,6.43
2022-08-26T04:27:48.683Z,6.47
2022-08-26T04:30:18.669Z,6.70
2022-08-26T04:32:46.648Z,6.30
2022-08-26T04:35:14.599Z,6.55
2022-08-26T04:37:44.235Z,6.40
2022-08-26T04:40:12.486Z,6.57
2022-08-26T04:42:40.486Z,6.30
2022-08-26T04:45:10.327Z,6.57
2022-08-26T04:47:39.571Z,6.53
2022-08-26T04:50:07.928Z,6.63
2022-08-26T04:52:36.966Z,6.15
2022-08-26T04:55:06.678Z,6.72
2022-08-26T04:57:36.799Z,6.18
2022-08-26T05:00:06.287Z,6.45
2022-08-26T05:02:34.618Z,6.40
2022-08-26T05:05:02.961Z,6.90
2022-08-26T05:07:31.906Z,7.00
2022-08-26T05:10:00.476Z,6.22
2022-08-26T05:12:29.836Z,6.32
2022-08-26T05:14:57.734Z,5.72
2022-08-26T05:17:26.049Z,6.18
2022-08-26T05:19:54.269Z,6.97
2022-08-26T05:22:22.252Z,7.13
2022-08-26T05:24:50.833Z,6.93
2022-08-26T05:27:18.728Z,7.28
2022-08-26T05:29:48.503Z,6.45
2022-08-26T05:32:22.498Z,7.38
2022-08-26T05:34:53.968Z,6.72
2022-08-26T05:37:22.399Z,6.90
2022-08-26T05:39:51.170Z,7.22
2022-08-26T05:42:20.333Z,7.30
2022-08-26T05:44:55.487Z,7.43
2022-08-26T05:47:24.576Z,8.18
2022-08-26T05:49:55.684Z,7.00
2022-08-26T05:52:26.002Z,7.15
2022-08-26T05:54:54.576Z,8.20
2022-08-26T05:57:22.699Z,7.30
2022-08-26T05:59:52.023Z,7.82
2022-08-26T06:02:20.697Z,7.03
2022-08-26T06:04:48.780Z,7.60
2022-08-26T06:07:17.208Z,7.18
2022-08-26T06:09:46.395Z,7.82
2022-08-26T06:12:14.309Z,7.70
2022-08-26T06:14:43.089Z,7.47
2022-08-26T06:17:12.350Z,7.93
2022-08-26T06:19:41.491Z,7.65
2022-08-26T06:22:29.329Z,7.53
2022-08-26T06:25:15.791Z,7.90
2022-08-26T06:27:43.819Z,8.05
2022-08-26T06:30:12.057Z,8.23
2022-08-26T06:32:40.538Z,8.35
2022-08-26T06:35:12.164Z,8.52
2022-08-26T06:37:41.369Z,8.90
2022-08-26T06:40:09.725Z,8.75
2022-08-26T06:42:39.745Z,7.68
2022-08-26T06:45:07.978Z,8.20
2022-08-26T06:47:37.148Z,8.70
2022-08-26T06:50:05.164Z,9.18
2022-08-26T06:52:33.177Z,8.75
2022-08-26T06:55:02.704Z,9.25
2022-08-26T06:57:33.135Z,8.48
2022-08-26T07:00:12.736Z,8.07
2022-08-26T07:02:40.937Z,8.85
2022-08-26T07:05:15.004Z,8.73
2022-08-26T07:07:43.125Z,8.43
2022-08-26T07:10:11.657Z,9.07
2022-08-26T07:12:39.612Z,8.70
2022-08-26T07:15:09.395Z,7.90
2022-08-26T07:17:37.366Z,8.48
2022-08-26T07:20:07.812Z,9.48
2022-08-26T07:22:37.505Z,8.85
2022-08-26T07:25:09.665Z,8.77
2022-08-26T07:27:37.952Z,9.13
2022-08-26T07:30:07.024Z,8.68
2022-08-26T07:32:35.227Z,8.23
2022-08-26T07:35:03.129Z,7.97
2022-08-26T07:37:31.054Z,8.27
2022-08-26T07:40:09.585Z,7.82
2022-08-26T07:42:37.634Z,7.78
2022-08-26T07:45:06.184Z,8.32
2022-08-26T07:47:34.247Z,8.15
2022-08-26T07:50:02.255Z,8.40
2022-08-26T07:52:31.329Z,8.05
2022-08-26T07:55:00.334Z,7.68
2022-08-26T07:57:29.174Z,7.93
2022-08-26T07:59:57.126Z,8.15
2022-08-26T08:02:25.776Z,7.82
2022-08-26T08:04:54.915Z,8.23
2022-08-26T08:07:38.634Z,7.85
2022-08-26T08:10:13.815Z,8.23
2022-08-26T08:12:42.360Z,7.78
2022-08-26T08:15:13.956Z,7.88
2022-08-26T08:17:43.798Z,7.53
2022-08-26T08:20:13.190Z,7.25
2022-08-26T08:22:41.297Z,7.10
2022-08-26T08:25:10.526Z,7.03
2022-08-26T08:27:40.631Z,7.05
2022-08-26T08:30:09.238Z,7.13
2022-08-26T08:32:44.095Z,7.38
2022-08-26T08:35:13.780Z,7.13
2022-08-26T08:37:42.244Z,7.70
2022-08-26T08:40:11.768Z,7.35
2022-08-26T08:42:46.851Z,7.38
2022-08-26T08:45:35.920Z,6.78
2022-08-26T08:48:27.844Z,7.40
2022-08-26T08:51:09.325Z,7.43
2022-08-26T08:53:41.922Z,7.25
2022-08-26T08:56:17.634Z,6.18
2022-08-26T08:58:51.876Z,6.22
2022-08-26T09:01:29.584Z,7.45
2022-08-26T09:04:00.484Z,6.40
2022-08-26T09:06:29.497Z,7.18
2022-08-26T09:08:57.565Z,7.32
2022-08-26T09:11:25.894Z,7.30
2022-08-26T09:13:55.186Z,7.00
2022-08-26T09:16:26.269Z,7.18
2022-08-26T09:19:12.711Z,7.03
2022-08-26T09:21:40.820Z,7.47
2022-08-26T09:24:11.069Z,6.63
2022-08-26T09:26:42.196Z,6.88
2022-08-26T09:29:30.499Z,7.03
2022-08-26T09:32:19.593Z,6.93
2022-08-26T09:35:00.394Z,7.38
2022-08-26T09:40:23.777Z,7.22
2022-08-26T09:43:22.609Z,6.45
2022-08-26T09:45:59.499Z,7.03
2022-08-26T09:48:37.996Z,6.72
2022-08-26T09:51:23.954Z,5.95
2022-08-26T09:53:53.892Z,6.78
2022-08-26T09:56:25.765Z,6.90
2022-08-26T09:58:56.871Z,6.55
2022-08-26T10:01:24.893Z,6.53
2022-08-26T10:03:53.211Z,6.25
2022-08-26T10:06:24.440Z,5.68
2022-08-26T10:09:00.090Z,5.40
2022-08-26T10:11:28.187Z,5.95
2022-08-26T10:13:58.156Z,5.82
2022-08-26T10:16:33.645Z,5.63
2022-08-26T10:19:03.153Z,6.00
2022-08-26T10:21:39.904Z,5.45
2022-08-26T10:24:11.336Z,6.22
2022-08-26T10:26:51.877Z,5.65
2022-08-26T10:29:25.732Z,6.00
2022-08-26T10:32:03.447Z,5.85
2022-08-26T10:34:32.992Z,5.57
2022-08-26T10:37:14.629Z,5.40
2022-08-26T10:39:57.277Z,6.00
2022-08-26T10:42:33.718Z,5.18
2022-08-26T10:45:06.092Z,5.30
2022-08-26T10:47:44.575Z,5.47
2022-08-26T10:50:13.081Z,5.32
2022-08-26T10:52:49.103Z,5.45
2022-08-26T10:55:24.183Z,5.35
2022-08-26T10:57:58.493Z,5.03
2022-08-26T11:00:49.814Z,4.78
2022-08-26T11:03:36.565Z,4.78
2022-08-26T11:06:20.497Z,4.60
2022-08-26T11:08:49.640Z,4.63
2022-08-26T11:11:38.508Z,5.22
2022-08-26T11:14:07.234Z,5.15
2022-08-26T11:16:54.880Z,5.07
2022-08-26T11:19:45.575Z,5.05
2022-08-26T11:22:36.468Z,5.25
2022-08-26T11:25:15.055Z,5.22
2022-08-26T11:27:43.003Z,5.10
2022-08-26T11:30:14.234Z,4.90
2022-08-26T11:32:42.168Z,5.35
2022-08-26T11:35:23.651Z,5.70
2022-08-26T11:37:54.705Z,5.13
2022-08-26T11:40:28.642Z,5.40
2022-08-26T11:42:59.768Z,5.22
2022-08-26T11:45:41.406Z,5.28
2022-08-26T11:48:24.225Z,5.30
2022-08-26T11:50:56.437Z,5.50
2022-08-26T11:53:26.154Z,5.53
2022-08-26T11:55:55.106Z,5.30
2022-08-26T11:58:24.069Z,5.18
2022-08-26T12:01:01.241Z,5.18
2022-08-26T12:03:41.137Z,5.18
2022-08-26T12:06:17.574Z,5.80
2022-08-26T12:08:46.116Z,5.13
2022-08-26T12:11:25.743Z,5.20
2022-08-26T12:13:57.901Z,4.97
2022-08-26T12:16:27.467Z,4.82
2022-08-26T12:18:56.296Z,5.07
2022-08-26T12:21:26.350Z,4.95
2022-08-26T12:23:55.536Z,5.65
2022-08-26T12:26:23.427Z,5.40
2022-08-26T12:28:53.972Z,5.60
2022-08-26T12:31:27.614Z,5.20
2022-08-26T12:33:56.170Z,4.95
2022-08-26T12:36:28.526Z,5.22
2022-08-26T12:38:58.454Z,5.25
2022-08-26T12:41:47.509Z,5.20
2022-08-26T12:44:34.037Z,5.55
2022-08-26T12:47:12.854Z,4.60
2022-08-26T12:49:42.618Z,4.57
2022-08-26T12:52:31.031Z,4.68
2022-08-26T12:55:29.313Z,4.43
2022-08-26T12:58:15.939Z,4.40
2022-08-26T13:00:45.472Z,4.70
2022-08-26T13:03:31.947Z,4.45
2022-08-26T13:06:33.039Z,4.50
2022-08-26T13:09:10.120Z,3.92
2022-08-26T13:11:41.158Z,3.50
2022-08-26T13:14:11.144Z,3.72
2022-08-26T13:16:40.065Z,3.40
2022-08-26T13:19:12.387Z,3.60
2022-08-26T13:21:47.985Z,3.97
2022-08-26T13:24:21.218Z,3.95
2022-08-26T13:26:49.715Z,4.10
2022-08-26T13:29:18.266Z,4.30
2022-08-26T13:31:46.825Z,4.40
2022-08-26T13:34:16.478Z,4.50
2022-08-26T13:36:45.497Z,4.50
2022-08-26T13:39:13.947Z,4.78
2022-08-26T13:41:43.531Z,3.90
2022-08-26T13:44:11.960Z,3.97
2022-08-26T13:46:40.568Z,3.70
2022-08-26T13:49:09.009Z,3.22
2022-08-26T13:51:38.001Z,3.53
2022-08-26T13:54:06.634Z,3.67
2022-08-26T13:56:35.061Z,3.60
2022-08-26T13:59:03.438Z,3.78
2022-08-26T14:01:32.652Z,3.55
2022-08-26T14:04:00.847Z,3.80
2022-08-26T14:06:28.878Z,3.90
2022-08-26T14:08:56.880Z,3.72
2022-08-26T14:11:25.301Z,3.97
2022-08-26T14:13:56.252Z,3.90
2022-08-26T14:16:31.776Z,4.10
2022-08-26T14:19:02.970Z,4.38
2022-08-26T14:21:35.262Z,4.35
2022-08-26T14:24:03.512Z,4.38
2022-08-26T14:26:31.479Z,4.10
2022-08-26T14:29:00.097Z,4.07
2022-08-26T14:31:29.594Z,4.30
2022-08-26T14:34:02.523Z,4.65
2022-08-26T14:36:34.445Z,4.28
2022-08-26T14:39:04.581Z,4.88
2022-08-26T14:41:33.368Z,4.68
2022-08-26T14:44:03.153Z,4.63
2022-08-26T14:46:32.718Z,4.78
2022-08-26T14:49:03.614Z,4.45
2022-08-26T14:51:33.192Z,4.53
2022-08-26T14:54:13.140Z,4.50
2022-08-26T14:56:43.590Z,4.57
2022-08-26T14:59:12.468Z,4.55
2022-08-26T15:01:40.548Z,4.53
2022-08-26T15:04:08.598Z,4.28
2022-08-26T15:06:37.037Z,4.80
2022-08-26T15:09:05.568Z,4.78
2022-08-26T15:11:33.663Z,4.40
2022-08-26T15:14:01.611Z,4.78
2022-08-26T15:16:30.022Z,4.97
2022-08-26T15:18:58.267Z,4.82
2022-08-26T15:21:27.343Z,4.40
2022-08-26T15:23:55.707Z,4.82
2022-08-26T15:26:24.545Z,4.85
2022-08-26T15:28:52.527Z,4.75
2022-08-26T15:31:20.889Z,4.55
2022-08-26T15:33:49.502Z,4.78
2022-08-26T15:36:17.545Z,4.90
2022-08-26T15:38:45.518Z,4.63
2022-08-26T15:41:14.612Z,5.07
2022-08-26T15:43:42.545Z,4.78
2022-08-26T15:46:14.014Z,5.10
2022-08-26T15:48:42.010Z,5.20
2022-08-26T15:51:19.522Z,4.65
2022-08-26T15:53:47.700Z,4.68
2022-08-26T15:56:15.864Z,4.88
2022-08-26T15:58:43.967Z,4.93
2022-08-26T16:01:12.833Z,4.80
2022-08-26T16:03:46.500Z,4.47
2022-08-26T16:06:16.031Z,4.40
2022-08-26T16:08:45.432Z,4.90
2022-08-26T16:11:14.576Z,5.45
2022-08-26T16:13:42.517Z,5.03
2022-08-26T16:16:10.850Z,5.30
2022-08-26T16:18:38.917Z,5.30
2022-08-26T16:21:13.371Z,5.38
2022-08-26T16:23:44.926Z,5.28
2022-08-26T16:26:18.209Z,5.18
2022-08-26T16:28:46.468Z,5.43
2022-08-26T16:31:14.529Z,5.55
2022-08-26T16:33:42.576Z,5.68
2022-08-26T16:36:10.928Z,6.72
2022-08-26T16:38:39.705Z,6.57
2022-08-26T16:41:08.167Z,6.07
2022-08-26T16:43:36.077Z,6.38
2022-08-26T16:46:07.135Z,6.63
2022-08-26T16:48:35.581Z,6.03
2022-08-26T16:51:03.592Z,5.38
2022-08-26T16:53:31.890Z,5.38
2022-08-26T16:55:59.821Z,5.93
2022-08-26T16:58:27.798Z,5.57
2022-08-26T17:00:55.810Z,6.38
2022-08-26T17:03:23.888Z,5.70
2022-08-26T17:05:52.010Z,6.80
2022-08-26T17:08:24.350Z,5.85
2022-08-26T17:10:57.479Z,5.90
2022-08-26T17:13:35.254Z,6.00
2022-08-26T17:16:05.502Z,5.93
2022-08-26T17:18:33.686Z,5.88
2022-08-26T17:21:03.444Z,5.85
2022-08-26T17:23:31.432Z,5.20
2022-08-26T17:25:59.632Z,4.80
2022-08-26T17:28:27.668Z,5.03
2022-08-26T17:30:57.411Z,5.00
2022-08-26T17:33:25.944Z,4.75
2022-08-26T17:35:54.338Z,4.88
2022-08-26T17:38:22.649Z,4.95
2022-08-26T17:40:50.747Z,4.40
2022-08-26T17:43:19.240Z,4.47
2022-08-26T17:45:47.225Z,4.32
2022-08-26T17:48:15.419Z,4.43
2022-08-26T17:50:45.473Z,4.53
2022-08-26T17:53:18.922Z,4.20
2022-08-26T17:55:48.340Z,4.32
2022-08-26T17:58:23.256Z,4.47
2022-08-26T18:00:52.808Z,4.18
2022-08-26T18:03:20.778Z,3.92
2022-08-26T18:05:50.030Z,3.80
2022-08-26T18:08:18.038Z,4.10
2022-08-26T18:10:45.974Z,3.97
2022-08-26T18:13:15.262Z,4.10
2022-08-26T18:15:44.177Z,3.92
2022-08-26T18:18:13.303Z,4.40
2022-08-26T18:20:42.504Z,3.65
2022-08-26T18:23:10.937Z,3.30
2022-08-26T18:25:43.005Z,3.05
2022-08-26T18:28:11.247Z,3.10
2022-08-26T18:30:39.524Z,2.90
2022-08-26T18:33:07.485Z,2.90
2022-08-26T18:35:39.322Z,2.78
2022-08-26T18:38:11.398Z,3.13
2022-08-26T18:40:41.124Z,2.72
2022-08-26T18:43:09.489Z,3.17
2022-08-26T18:45:37.523Z,2.67
2022-08-26T18:48:05.985Z,3.00
2022-08-26T18:50:34.194Z,2.97
2022-08-26T18:53:02.867Z,3.10
2022-08-26T18:55:30.691Z,2.88
2022-08-26T18:57:58.670Z,2.90
2022-08-26T19:00:28.891Z,3.22
2022-08-26T19:02:57.188Z,3.28
2022-08-26T19:05:25.905Z,2.90
2022-08-26T19:07:53.924Z,3.10
2022-08-26T19:10:21.970Z,2.90
2022-08-26T19:12:52.088Z,3.05
2022-08-26T19:15:20.333Z,2.80
2022-08-26T19:17:48.511Z,2.72
2022-08-26T19:20:17.151Z,2.67
2022-08-26T19:22:46.341Z,2.63
2022-08-26T19:25:14.582Z,2.80
2022-08-26T19:27:42.495Z,3.10
2022-08-26T19:30:11.003Z,2.58
2022-08-26T19:32:39.247Z,2.63
2022-08-26T19:35:08.682Z,2.88
2022-08-26T19:37:36.771Z,2.78
2022-08-26T19:40:05.397Z,2.72
2022-08-26T19:42:33.544Z,2.85
2022-08-26T19:45:24.370Z,2.78
2022-08-26T19:47:53.813Z,2.78
2022-08-26T19:50:22.619Z,2.78
2022-08-26T19:52:50.643Z,2.40
2022-08-26T19:55:19.308Z,2.60
2022-08-26T19:57:47.370Z,2.75
2022-08-26T20:00:18.265Z,2.67
2022-08-26T20:02:46.379Z,2.80
2022-08-26T20:05:15.041Z,2.80
2022-08-26T20:07:43.190Z,2.67
2022-08-26T20:10:13.913Z,2.70
2022-08-26T20:12:42.483Z,2.50
2022-08-26T20:15:12.237Z,2.70
2022-08-26T20:17:40.942Z,2.80
2022-08-26T20:20:33.285Z,2.83
2022-08-26T20:23:04.784Z,2.50
2022-08-26T20:25:33.781Z,2.70
2022-08-26T20:28:02.074Z,2.80
2022-08-26T20:30:30.122Z,2.72
2022-08-26T20:32:58.108Z,2.70
2022-08-26T20:35:26.172Z,2.83
2022-08-26T20:37:54.155Z,3.20
2022-08-26T20:40:22.780Z,2.90
2022-08-26T20:42:50.713Z,2.88
2022-08-26T20:45:18.699Z,3.00
2022-08-26T20:47:46.686Z,3.10
2022-08-26T20:50:14.597Z,3.03
2022-08-26T20:52:42.646Z,3.35
2022-08-26T20:55:11.000Z,3.13
2022-08-26T20:57:39.152Z,2.90
2022-08-26T21:00:08.106Z,3.25
2022-08-26T21:02:36.207Z,2.70
2022-08-26T21:05:04.981Z,2.60
2022-08-26T21:07:32.949Z,2.95
2022-08-26T21:10:01.099Z,2.88
2022-08-26T21:12:29.101Z,2.83
2022-08-26T21:14:57.114Z,3.05
2022-08-26T21:17:24.965Z,2.85
2022-08-26T21:19:52.918Z,2.90
2022-08-26T21:22:20.869Z,2.90
2022-08-26T21:24:49.243Z,3.28
2022-08-26T21:27:17.635Z,2.90
2022-08-26T21:29:54.962Z,2.90
2022-08-26T21:32:22.935Z,3.08
2022-08-26T21:34:50.890Z,2.90
2022-08-26T21:37:18.796Z,3.33
2022-08-26T21:39:46.956Z,3.03
2022-08-26T21:42:15.007Z,3.40
2022-08-26T21:44:44.997Z,3.08
2022-08-26T21:47:21.504Z,3.08
2022-08-26T21:49:49.584Z,3.20
2022-08-26T21:52:17.858Z,3.20
2022-08-26T21:54:49.334Z,3.50
2022-08-26T21:57:17.638Z,3.05
2022-08-26T21:59:45.620Z,3.10
2022-08-26T22:02:13.800Z,3.28
2022-08-26T22:04:44.596Z,3.42
2022-08-26T22:07:17.691Z,3.10
2022-08-26T22:09:45.604Z,3.17
2022-08-26T22:12:14.782Z,3.45
2022-08-26T22:14:43.204Z,3.40
2022-08-26T22:17:11.211Z,3.22
2022-08-26T22:19:46.396Z,3.00
2022-08-26T22:22:15.448Z,2.95
2022-08-26T22:24:43.919Z,3.30
2022-08-26T22:27:12.316Z,2.95
2022-08-26T22:29:40.804Z,3.10
2022-08-26T22:32:08.797Z,3.03
2022-08-26T22:34:36.826Z,3.22
2022-08-26T22:37:04.809Z,3.45
2022-08-26T22:39:32.813Z,3.35
2022-08-26T22:42:01.425Z,3.15
2022-08-26T22:44:29.407Z,2.95
2022-08-26T22:46:57.498Z,2.80
2022-08-26T22:49:25.432Z,2.92
2022-08-26T22:51:53.454Z,3.20
2022-08-26T22:54:21.682Z,3.05
2022-08-26T22:56:49.613Z,2.90
2022-08-26T22:59:18.212Z,2.90
2022-08-26T23:01:47.636Z,3.08
2022-08-26T23:04:15.585Z,3.03
2022-08-26T23:06:47.546Z,2.90
2022-08-26T23:09:18.344Z,3.38
2022-08-26T23:11:47.146Z,3.65
2022-08-26T23:14:15.203Z,3.42
2022-08-26T23:16:43.158Z,3.42
2022-08-26T23:19:12.025Z,3.53
2022-08-26T23:21:40.570Z,3.33
2022-08-26T23:24:09.083Z,3.22
2022-08-26T23:26:37.259Z,2.92
2022-08-26T23:29:05.969Z,3.03
2022-08-26T23:31:34.425Z,3.20
2022-08-26T23:34:20.951Z,3.15
2022-08-26T23:36:49.247Z,3.33
2022-08-26T23:39:17.019Z,3.45
2022-08-26T23:41:44.890Z,3.55
2022-08-26T23:44:13.172Z,2.92
2022-08-26T23:46:41.100Z,3.30
2022-08-26T23:49:09.071Z,3.30
2022-08-26T23:51:55.451Z,3.47
2022-08-26T23:54:23.456Z,3.13
2022-08-26T23:56:51.223Z,3.40
2022-08-26T23:59:19.123Z,3.13
